Time;durP1;ratioP1;P1;durP2;ratioP2;P2;SDS_P1;SDS_P2;PMS_P1;PMS_P2;Temp;Humidity;BMP_temperature;BMP_pressure;BME280_temperature;BME280_humidity;BME280_pressure;Samples;Min_cycle;Max_cycle;Signal;HPM_P1;HPM_P2
2021/09/07 00:00:51;;;;;;;11.57;7.78;;;19.40;99.90;;;;;;4109560;28;20513;-69
2021/09/07 00:02:52;;;;;;;10.45;7.38;;;19.40;99.90;;;;;;4126574;28;20114;-69
2021/09/07 00:04:52;;;;;;;12.18;7.68;;;19.40;99.90;;;;;;4126686;28;20042;-69
2021/09/07 00:06:53;;;;;;;12.18;8.38;;;19.40;99.90;;;;;;4109424;28;20039;-69
2021/09/07 00:08:53;;;;;;;13.63;8.25;;;19.30;99.90;;;;;;4126631;28;20093;-69
2021/09/07 00:10:54;;;;;;;10.93;7.35;;;19.30;99.90;;;;;;4125370;28;20097;-69
2021/09/07 00:12:54;;;;;;;19.60;7.95;;;19.30;99.90;;;;;;4107925;28;20410;-70
2021/09/07 00:14:55;;;;;;;11.75;8.23;;;19.30;99.90;;;;;;4108641;28;20437;-70
2021/09/07 00:16:56;;;;;;;13.52;8.50;;;19.30;99.90;;;;;;4125923;28;20038;-69
2021/09/07 00:18:56;;;;;;;15.00;8.38;;;19.30;99.90;;;;;;4126211;28;20054;-69
2021/09/07 00:20:57;;;;;;;11.10;7.85;;;19.30;99.90;;;;;;4125224;28;20042;-69
2021/09/07 00:22:57;;;;;;;10.07;7.00;;;19.30;99.90;;;;;;4126409;28;20034;-70
2021/09/07 00:24:58;;;;;;;9.95;6.88;;;19.30;99.90;;;;;;4125646;28;20031;-69
2021/09/07 00:26:59;;;;;;;12.73;7.43;;;19.20;99.90;;;;;;4125982;28;20394;-69
2021/09/07 00:28:59;;;;;;;12.10;7.97;;;19.20;99.90;;;;;;4094173;28;20499;-69
2021/09/07 00:31:00;;;;;;;12.35;7.70;;;19.20;99.90;;;;;;4117136;28;20548;-69
2021/09/07 00:33:00;;;;;;;10.57;6.97;;;19.20;99.90;;;;;;4109829;28;20038;-70
2021/09/07 00:35:01;;;;;;;11.48;7.65;;;19.20;99.90;;;;;;4106975;28;20051;-69
2021/09/07 00:37:03;;;;;;;11.18;7.50;;;19.20;99.90;;;;;;4124305;28;20048;-69
2021/09/07 00:39:03;;;;;;;10.82;7.93;;;19.20;99.90;;;;;;4108120;28;20118;-69
2021/09/07 00:41:04;;;;;;;10.80;7.20;;;19.20;99.90;;;;;;4109770;28;20469;-69
2021/09/07 00:43:05;;;;;;;10.35;7.05;;;19.20;99.90;;;;;;4110356;28;20042;-69
2021/09/07 00:45:10;;;;;;;11.25;7.53;;;19.20;99.90;;;;;;4109726;28;20034;-69
2021/09/07 00:47:10;;;;;;;11.45;7.80;;;19.20;99.90;;;;;;4126974;28;20809;-69
2021/09/07 00:49:12;;;;;;;11.52;7.78;;;19.10;99.90;;;;;;4127140;28;20058;-69
2021/09/07 00:51:13;;;;;;;11.90;8.53;;;19.10;99.90;;;;;;4128998;28;20126;-69
2021/09/07 00:53:15;;;;;;;13.00;7.95;;;19.10;99.90;;;;;;4134076;28;20038;-69
2021/09/07 00:55:16;;;;;;;9.73;7.32;;;19.10;99.90;;;;;;4125045;28;20146;-69
2021/09/07 00:57:17;;;;;;;11.50;7.75;;;19.10;99.90;;;;;;4131031;28;20030;-69
2021/09/07 00:59:20;;;;;;;10.82;8.02;;;19.10;99.90;;;;;;4125615;28;20506;-69
2021/09/07 01:01:20;;;;;;;;;;;19.10;99.90;;;;;;4131975;28;20046;-69
2021/09/07 01:03:21;;;;;;;9.70;6.93;;;19.00;99.90;;;;;;4128134;28;19983;-69
2021/09/07 01:05:22;;;;;;;9.82;7.28;;;19.00;99.90;;;;;;4118793;28;20395;-69
2021/09/07 01:07:23;;;;;;;12.48;7.75;;;19.00;99.90;;;;;;4124896;28;20046;-69
2021/09/07 01:09:24;;;;;;;11.52;8.20;;;19.00;99.90;;;;;;4125680;28;20433;-70
2021/09/07 01:11:25;;;;;;;9.40;7.15;;;19.00;99.90;;;;;;4123522;28;20026;-69
2021/09/07 01:13:26;;;;;;;10.75;7.85;;;19.00;99.90;;;;;;4105695;28;20069;-69
2021/09/07 01:15:26;;;;;;;10.20;7.75;;;18.90;99.90;;;;;;4111214;28;20058;-69
2021/09/07 01:17:27;;;;;;;11.38;6.78;;;18.90;99.90;;;;;;4124986;28;20038;-69
2021/09/07 01:19:30;;;;;;;10.60;7.40;;;18.90;99.90;;;;;;4109788;28;20519;-69
2021/09/07 01:21:30;;;;;;;10.25;7.00;;;18.90;99.90;;;;;;4103622;28;20451;-70
2021/09/07 01:23:31;;;;;;;11.82;7.65;;;18.90;99.90;;;;;;4124262;28;20042;-70
2021/09/07 01:25:31;;;;;;;10.13;7.10;;;18.90;99.90;;;;;;4123768;28;20062;-69
2021/09/07 01:27:32;;;;;;;11.70;7.00;;;18.90;99.90;;;;;;4107701;28;20029;-69
2021/09/07 01:29:35;;;;;;;11.40;7.90;;;18.90;99.90;;;;;;4124508;28;20057;-69
2021/09/07 01:31:35;;;;;;;;;;;18.90;99.90;;;;;;4130364;28;20042;-69
2021/09/07 01:33:38;;;;;;;10.63;7.80;;;18.80;99.90;;;;;;4129266;28;20029;-69
2021/09/07 01:35:40;;;;;;;11.25;7.30;;;18.80;99.90;;;;;;4128891;28;20034;-69
2021/09/07 01:37:41;;;;;;;11.30;7.57;;;18.70;99.90;;;;;;4135265;28;20037;-69
2021/09/07 01:39:41;;;;;;;12.10;8.15;;;18.70;99.90;;;;;;4130743;28;20050;-69
2021/09/07 01:41:43;;;;;;;11.45;7.90;;;18.70;99.90;;;;;;4124358;28;20038;-70
2021/09/07 01:43:52;;;;;;;11.93;8.07;;;18.70;99.90;;;;;;4148701;28;20061;-69
2021/09/07 01:45:54;;;;;;;13.70;8.48;;;18.60;99.90;;;;;;4123740;28;20054;-69
2021/09/07 01:47:56;;;;;;;13.90;8.65;;;18.60;99.90;;;;;;4129547;28;20042;-69
2021/09/07 01:49:56;;;;;;;11.63;8.10;;;18.60;99.90;;;;;;4125673;28;20425;-70
2021/09/07 01:52:10;;;;;;;12.02;7.88;;;18.60;99.90;;;;;;4125138;28;20046;-70
2021/09/07 01:54:12;;;;;;;10.30;7.32;;;18.70;99.90;;;;;;4123945;28;20510;-69
2021/09/07 01:56:12;;;;;;;10.70;7.45;;;18.60;99.90;;;;;;4126129;28;20363;-69
2021/09/07 01:58:13;;;;;;;11.15;6.97;;;18.60;99.90;;;;;;4123428;28;20037;-69
2021/09/07 02:00:15;;;;;;;10.18;7.43;;;18.60;99.90;;;;;;4128784;28;20046;-69
2021/09/07 02:02:15;;;;;;;10.77;7.00;;;18.60;99.90;;;;;;4126399;28;20034;-69
2021/09/07 02:04:16;;;;;;;10.10;7.57;;;18.60;99.90;;;;;;4124624;28;20072;-69
2021/09/07 02:06:17;;;;;;;11.73;7.93;;;18.60;99.90;;;;;;4127239;28;20054;-69
2021/09/07 02:08:17;;;;;;;13.27;7.72;;;18.60;99.90;;;;;;4127057;28;20104;-69
2021/09/07 02:10:20;;;;;;;12.38;7.93;;;18.60;99.90;;;;;;4113671;28;20502;-69
2021/09/07 02:12:20;;;;;;;10.32;7.50;;;18.50;99.90;;;;;;4131791;28;20038;-69
2021/09/07 02:14:21;;;;;;;12.50;7.63;;;18.50;99.90;;;;;;4125538;28;20034;-69
2021/09/07 02:16:22;;;;;;;11.07;7.22;;;18.50;99.90;;;;;;4128973;28;20661;-69
2021/09/07 02:18:22;;;;;;;9.00;6.95;;;18.50;99.90;;;;;;4129671;28;20038;-69
2021/09/07 02:20:23;;;;;;;10.50;7.43;;;18.50;99.90;;;;;;4131789;28;20042;-69
2021/09/07 02:22:27;;;;;;;10.52;7.07;;;18.50;99.90;;;;;;4127065;28;20418;-69
2021/09/07 02:24:27;;;;;;;12.13;8.20;;;18.50;99.90;;;;;;4129384;28;20038;-69
2021/09/07 02:26:28;;;;;;;12.63;8.15;;;18.50;99.90;;;;;;4133856;28;20057;-69
2021/09/07 02:28:28;;;;;;;11.63;7.85;;;18.50;99.90;;;;;;4125486;28;20117;-69
2021/09/07 02:30:29;;;;;;;15.27;8.80;;;18.50;99.90;;;;;;4129229;28;20030;-69
2021/09/07 02:32:30;;;;;;;14.23;8.18;;;18.50;99.90;;;;;;4129294;28;20049;-69
2021/09/07 02:34:32;;;;;;;12.25;8.63;;;18.40;99.90;;;;;;4134587;28;20026;-69
2021/09/07 02:36:32;;;;;;;12.52;8.77;;;18.40;99.90;;;;;;4125898;28;20060;-69
2021/09/07 02:38:33;;;;;;;11.40;7.95;;;18.40;99.90;;;;;;4127446;28;20043;-69
2021/09/07 02:40:33;;;;;;;11.60;8.45;;;18.40;99.90;;;;;;4120247;28;20130;-69
2021/09/07 02:42:34;;;;;;;14.65;8.80;;;18.40;99.90;;;;;;4121555;28;20050;-70
2021/09/07 02:44:35;;;;;;;13.75;9.85;;;18.40;99.90;;;;;;4111188;28;20118;-69
2021/09/07 02:46:35;;;;;;;16.05;9.60;;;18.30;99.90;;;;;;4126273;28;20117;-69
2021/09/07 02:48:36;;;;;;;15.50;9.43;;;18.30;99.90;;;;;;4121747;28;20054;-70
2021/09/07 02:50:37;;;;;;;14.40;9.95;;;18.30;99.90;;;;;;4123617;28;20031;-69
2021/09/07 02:52:38;;;;;;;14.07;8.95;;;18.30;99.90;;;;;;4124181;28;20034;-69
2021/09/07 02:54:38;;;;;;;11.63;8.40;;;18.30;99.90;;;;;;4123253;28;20113;-69
2021/09/07 02:56:39;;;;;;;13.40;8.93;;;18.30;99.90;;;;;;4106870;28;20059;-69
2021/09/07 02:58:40;;;;;;;21.10;9.15;;;18.30;99.90;;;;;;4123757;28;20034;-69
2021/09/07 03:00:41;;;;;;;13.80;8.55;;;18.30;99.90;;;;;;4119870;28;20046;-69
2021/09/07 03:02:41;;;;;;;11.32;8.30;;;18.30;99.90;;;;;;4106040;28;20459;-69
2021/09/07 03:04:42;;;;;;;13.52;9.18;;;18.30;99.90;;;;;;4120365;28;20053;-69
2021/09/07 03:06:45;;;;;;;12.45;8.55;;;18.30;99.90;;;;;;4122744;28;20462;-69
2021/09/07 03:08:46;;;;;;;12.82;8.15;;;18.30;99.90;;;;;;4122343;28;20422;-70
2021/09/07 03:10:46;;;;;;;12.38;8.75;;;18.30;99.90;;;;;;4106318;28;20046;-69
2021/09/07 03:12:49;;;;;;;13.10;8.85;;;18.30;99.90;;;;;;4123513;28;20061;-70
2021/09/07 03:14:49;;;;;;;;;;;18.30;99.90;;;;;;4122329;28;20053;-69
2021/09/07 03:16:50;;;;;;;11.00;7.65;;;18.30;99.90;;;;;;4104236;28;19961;-69
2021/09/07 03:18:52;;;;;;;11.45;7.90;;;18.30;99.90;;;;;;4123225;28;20046;-70
2021/09/07 03:20:52;;;;;;;13.27;8.70;;;18.30;99.90;;;;;;4104044;28;20042;-69
2021/09/07 03:22:53;;;;;;;15.48;9.45;;;18.30;99.90;;;;;;4118341;28;20121;-69
2021/09/07 03:24:53;;;;;;;11.60;8.13;;;18.30;99.90;;;;;;4123511;28;20077;-69
2021/09/07 03:26:54;;;;;;;13.60;9.57;;;18.30;99.90;;;;;;4122965;28;20113;-70
2021/09/07 03:28:55;;;;;;;14.50;8.85;;;18.30;99.90;;;;;;4123841;28;20038;-69
2021/09/07 03:30:55;;;;;;;12.80;9.10;;;18.30;99.90;;;;;;4122660;28;20109;-69
2021/09/07 03:32:56;;;;;;;12.38;8.68;;;18.30;99.90;;;;;;4108748;28;20031;-69
2021/09/07 03:34:56;;;;;;;12.73;8.82;;;18.20;99.90;;;;;;4123598;28;20817;-69
2021/09/07 03:36:57;;;;;;;11.40;8.07;;;18.30;99.90;;;;;;4103043;28;20565;-69
2021/09/07 03:38:58;;;;;;;11.60;8.32;;;18.20;99.90;;;;;;4122282;28;20062;-69
2021/09/07 03:40:58;;;;;;;11.93;8.98;;;18.30;99.90;;;;;;4122758;28;20045;-69
2021/09/07 03:42:59;;;;;;;12.23;8.40;;;18.30;99.90;;;;;;4122798;28;20027;-70
2021/09/07 03:45:01;;;;;;;12.40;8.85;;;18.30;99.90;;;;;;4123475;28;20042;-69
2021/09/07 03:47:02;;;;;;;14.00;9.57;;;18.30;99.90;;;;;;4122780;28;20061;-70
2021/09/07 03:49:02;;;;;;;15.82;9.75;;;18.30;99.90;;;;;;4122358;28;20035;-69
2021/09/07 03:51:04;;;;;;;14.70;9.93;;;18.30;99.90;;;;;;4120790;28;20050;-69
2021/09/07 03:53:04;;;;;;;14.18;9.02;;;18.30;99.90;;;;;;4107342;28;20490;-69
2021/09/07 03:55:06;;;;;;;15.95;10.27;;;18.30;99.90;;;;;;4121135;28;20053;-69
2021/09/07 03:57:07;;;;;;;13.50;9.35;;;18.40;99.90;;;;;;4121149;28;20041;-69
2021/09/07 03:59:07;;;;;;;15.82;9.80;;;18.40;99.90;;;;;;4101731;28;20431;-69
2021/09/07 04:01:09;;;;;;;14.65;10.10;;;18.40;99.90;;;;;;4118498;28;20073;-69
2021/09/07 04:03:15;;;;;;;12.80;9.13;;;18.40;99.90;;;;;;4108435;28;20394;-69
2021/09/07 04:05:15;;;;;;;13.73;9.27;;;18.40;99.90;;;;;;4122906;28;20034;-69
2021/09/07 04:07:16;;;;;;;13.95;9.65;;;18.40;99.90;;;;;;4126595;28;20061;-69
2021/09/07 04:09:17;;;;;;;14.85;9.88;;;18.40;99.90;;;;;;4106596;28;20046;-70
2021/09/07 04:11:17;;;;;;;15.98;10.27;;;18.40;99.90;;;;;;4104229;28;20094;-69
2021/09/07 04:13:18;;;;;;;14.07;10.15;;;18.40;99.90;;;;;;4107809;28;20078;-69
2021/09/07 04:15:19;;;;;;;14.02;9.52;;;18.40;99.90;;;;;;4120453;28;20049;-69
2021/09/07 04:17:20;;;;;;;16.00;10.52;;;18.40;99.90;;;;;;4122827;28;20093;-69
2021/09/07 04:19:20;;;;;;;18.38;11.13;;;18.40;99.90;;;;;;4106429;28;20039;-70
2021/09/07 04:21:21;;;;;;;15.90;10.57;;;18.40;99.90;;;;;;4122673;28;20567;-69
2021/09/07 04:23:21;;;;;;;13.68;9.27;;;18.30;99.90;;;;;;4123583;28;20092;-69
2021/09/07 04:25:22;;;;;;;16.75;10.65;;;18.30;99.90;;;;;;4122365;28;20042;-69
2021/09/07 04:27:23;;;;;;;17.75;10.55;;;18.40;99.90;;;;;;4123751;28;20042;-69
2021/09/07 04:29:23;;;;;;;13.95;9.93;;;18.30;99.90;;;;;;4102090;28;20027;-70
2021/09/07 04:31:24;;;;;;;14.65;10.40;;;18.40;99.90;;;;;;4118311;28;20418;-70
2021/09/07 04:33:24;;;;;;;16.42;10.38;;;18.30;99.90;;;;;;4122890;28;20196;-69
2021/09/07 04:35:25;;;;;;;14.48;10.00;;;18.40;99.90;;;;;;4126121;28;20077;-69
2021/09/07 04:37:26;;;;;;;13.25;9.85;;;18.40;99.90;;;;;;4125873;28;20514;-69
2021/09/07 04:39:27;;;;;;;14.73;10.20;;;18.40;99.90;;;;;;4126437;28;20034;-70
2021/09/07 04:41:28;;;;;;;13.90;9.43;;;18.40;99.90;;;;;;4121227;28;20046;-69
2021/09/07 04:43:28;;;;;;;14.75;10.27;;;18.40;99.90;;;;;;4126059;28;20497;-70
2021/09/07 04:45:29;;;;;;;15.32;10.30;;;18.40;99.90;;;;;;4126408;28;20069;-70
2021/09/07 04:47:30;;;;;;;16.38;10.48;;;18.40;99.90;;;;;;4125385;28;20042;-69
2021/09/07 04:49:30;;;;;;;12.68;9.30;;;18.40;99.90;;;;;;4124468;28;20065;-70
2021/09/07 04:51:31;;;;;;;13.10;9.20;;;18.40;99.90;;;;;;4125603;28;20517;-70
2021/09/07 04:53:32;;;;;;;12.55;9.35;;;18.40;99.90;;;;;;4125837;28;20037;-70
2021/09/07 04:55:32;;;;;;;13.98;9.70;;;18.40;99.90;;;;;;4126116;28;20061;-71
2021/09/07 04:57:33;;;;;;;13.00;9.10;;;18.40;99.90;;;;;;4125751;28;20042;-71
2021/09/07 04:59:33;;;;;;;13.57;9.07;;;18.40;99.90;;;;;;4126077;28;20125;-70
2021/09/07 05:01:34;;;;;;;13.05;9.48;;;18.40;99.90;;;;;;4125876;28;20725;-70
2021/09/07 05:03:35;;;;;;;12.93;9.52;;;18.50;99.90;;;;;;4125949;28;20038;-70
2021/09/07 05:05:35;;;;;;;11.82;8.75;;;18.50;99.90;;;;;;4124819;28;20042;-71
2021/09/07 05:07:36;;;;;;;14.05;9.80;;;18.50;99.90;;;;;;4123234;28;20045;-70
2021/09/07 05:09:37;;;;;;;13.80;9.77;;;18.50;99.90;;;;;;4095014;28;20659;-70
2021/09/07 05:11:37;;;;;;;12.85;8.77;;;18.50;99.90;;;;;;4122792;28;20559;-70
2021/09/07 05:13:38;;;;;;;15.45;9.20;;;18.50;99.90;;;;;;4120533;28;20089;-70
2021/09/07 05:15:39;;;;;;;17.23;9.32;;;18.50;99.90;;;;;;4124113;28;20066;-70
2021/09/07 05:17:39;;;;;;;13.07;9.40;;;18.50;99.90;;;;;;4122387;28;20046;-71
2021/09/07 05:19:43;;;;;;;14.02;9.93;;;18.50;99.90;;;;;;4122992;28;20057;-70
2021/09/07 05:21:44;;;;;;;14.88;9.95;;;18.50;99.90;;;;;;4121773;28;21217;-70
2021/09/07 05:23:44;;;;;;;14.32;9.98;;;18.50;99.90;;;;;;4112168;28;20050;-71
2021/09/07 05:25:45;;;;;;;14.57;8.85;;;18.50;99.90;;;;;;4119745;28;20039;-70
2021/09/07 05:27:45;;;;;;;13.55;9.15;;;18.60;99.90;;;;;;4120723;28;20066;-70
2021/09/07 05:29:48;;;;;;;14.23;9.25;;;18.50;99.90;;;;;;4121538;28;20125;-70
2021/09/07 05:31:49;;;;;;;15.48;10.25;;;18.60;99.90;;;;;;4112856;28;20042;-71
2021/09/07 05:33:49;;;;;;;15.63;10.10;;;18.60;99.90;;;;;;4119766;28;20125;-71
2021/09/07 05:35:51;;;;;;;14.43;9.88;;;18.60;99.90;;;;;;4117911;28;20050;-70
2021/09/07 05:37:52;;;;;;;15.32;11.07;;;18.60;99.90;;;;;;4104275;28;20442;-70
2021/09/07 05:39:52;;;;;;;14.90;9.50;;;18.60;99.90;;;;;;4104784;28;20043;-70
2021/09/07 05:41:53;;;;;;;16.20;10.07;;;18.60;99.90;;;;;;4106911;28;20082;-70
2021/09/07 05:43:54;;;;;;;14.55;10.15;;;18.60;99.90;;;;;;4119633;28;20066;-70
2021/09/07 05:45:55;;;;;;;13.82;9.15;;;18.60;99.90;;;;;;4119183;28;20493;-70
2021/09/07 05:47:55;;;;;;;14.27;9.57;;;18.60;99.90;;;;;;4121841;28;20030;-70
2021/09/07 05:49:56;;;;;;;14.30;9.65;;;18.60;99.90;;;;;;4119132;28;20031;-70
2021/09/07 05:51:58;;;;;;;12.90;8.57;;;18.60;99.90;;;;;;4103076;28;20432;-70
2021/09/07 05:53:58;;;;;;;13.93;9.40;;;18.70;99.90;;;;;;4121303;28;20045;-70
2021/09/07 05:55:59;;;;;;;15.48;10.15;;;18.60;99.90;;;;;;4100923;28;20121;-70
2021/09/07 05:58:00;;;;;;;14.20;10.23;;;18.70;99.90;;;;;;4110142;28;20031;-70
2021/09/07 06:00:01;;;;;;;13.98;9.95;;;18.70;99.90;;;;;;4118845;28;20053;-70
2021/09/07 06:02:02;;;;;;;14.25;10.30;;;18.70;99.90;;;;;;4120586;28;20066;-70
2021/09/07 06:04:03;;;;;;;14.35;10.07;;;18.70;99.90;;;;;;4115826;28;20038;-70
2021/09/07 06:06:03;;;;;;;16.85;10.40;;;18.70;99.90;;;;;;4118467;28;20049;-70
2021/09/07 06:08:04;;;;;;;15.20;10.27;;;18.80;99.90;;;;;;4092650;28;20598;-70
2021/09/07 06:10:05;;;;;;;15.00;10.20;;;18.70;99.90;;;;;;4119287;28;20038;-70
2021/09/07 06:12:06;;;;;;;16.35;10.43;;;18.80;99.90;;;;;;4110700;28;20045;-70
2021/09/07 06:14:07;;;;;;;18.77;9.93;;;18.80;99.90;;;;;;4120152;28;20038;-70
2021/09/07 06:16:08;;;;;;;17.02;9.50;;;18.80;99.90;;;;;;4119588;28;20038;-71
2021/09/07 06:18:08;;;;;;;15.27;10.18;;;18.90;99.90;;;;;;4122364;28;20041;-70
2021/09/07 06:20:10;;;;;;;17.15;10.65;;;18.90;99.90;;;;;;4122485;28;20034;-70
2021/09/07 06:22:10;;;;;;;18.95;10.63;;;18.90;99.90;;;;;;4121162;28;20033;-70
2021/09/07 06:24:11;;;;;;;14.80;10.25;;;18.90;99.90;;;;;;4121141;28;20046;-70
2021/09/07 06:26:11;;;;;;;16.98;10.02;;;18.90;99.90;;;;;;4124670;28;20058;-70
2021/09/07 06:28:12;;;;;;;14.27;10.27;;;18.90;99.90;;;;;;4135495;28;21097;-71
2021/09/07 06:30:13;;;;;;;14.80;9.90;;;19.00;99.90;;;;;;4119379;28;20806;-70
2021/09/07 06:32:16;;;;;;;14.00;9.48;;;19.00;99.90;;;;;;4120825;28;20105;-70
2021/09/07 06:34:17;;;;;;;17.63;11.52;;;19.00;99.90;;;;;;4122177;28;20085;-70
2021/09/07 06:36:17;;;;;;;14.80;10.20;;;19.10;99.90;;;;;;4110595;28;20043;-70
2021/09/07 06:38:18;;;;;;;15.95;10.50;;;19.10;99.90;;;;;;4116480;28;20077;-70
2021/09/07 06:40:18;;;;;;;17.10;10.88;;;19.10;99.90;;;;;;4103280;28;20033;-70
2021/09/07 06:42:19;;;;;;;17.83;11.13;;;19.10;99.90;;;;;;4117517;28;20044;-70
2021/09/07 06:44:20;;;;;;;17.38;11.77;;;19.10;99.90;;;;;;4120484;28;20486;-71
2021/09/07 06:46:20;;;;;;;16.58;11.15;;;19.10;99.90;;;;;;4119122;28;20037;-71
2021/09/07 06:48:21;;;;;;;14.98;10.93;;;19.10;99.90;;;;;;4116052;28;21360;-70
2021/09/07 06:50:21;;;;;;;18.25;11.18;;;19.20;99.90;;;;;;4119389;28;20058;-70
2021/09/07 06:52:23;;;;;;;17.05;10.40;;;19.20;99.90;;;;;;4101243;28;20034;-71
2021/09/07 06:54:24;;;;;;;17.88;11.00;;;19.20;99.90;;;;;;4101837;28;20043;-71
2021/09/07 06:56:24;;;;;;;15.93;10.93;;;19.20;99.90;;;;;;4103045;28;20467;-71
2021/09/07 06:58:25;;;;;;;16.67;11.30;;;19.30;99.90;;;;;;4118426;28;20061;-70
2021/09/07 07:00:25;;;;;;;16.25;11.77;;;19.30;99.90;;;;;;4116651;28;21035;-71
2021/09/07 07:02:26;;;;;;;18.85;11.05;;;19.30;99.90;;;;;;4101844;28;20399;-71
2021/09/07 07:04:27;;;;;;;16.83;10.40;;;19.30;99.90;;;;;;4118644;28;20023;-71
2021/09/07 07:06:27;;;;;;;16.67;10.50;;;19.40;99.90;;;;;;4111604;28;20360;-71
2021/09/07 07:08:28;;;;;;;14.40;10.48;;;19.40;99.90;;;;;;4110334;28;20044;-71
2021/09/07 07:10:28;;;;;;;19.13;11.75;;;19.40;99.90;;;;;;4117769;28;20034;-71
2021/09/07 07:12:29;;;;;;;19.67;12.77;;;19.40;99.90;;;;;;4117233;28;20035;-71
2021/09/07 07:14:30;;;;;;;16.85;11.57;;;19.50;99.90;;;;;;4118400;28;20031;-71
2021/09/07 07:16:31;;;;;;;14.93;10.98;;;19.50;99.90;;;;;;4101174;28;20107;-71
2021/09/07 07:18:32;;;;;;;19.13;11.90;;;19.50;99.90;;;;;;4119671;28;20039;-71
2021/09/07 07:20:33;;;;;;;21.95;11.57;;;19.60;99.90;;;;;;4117609;28;20082;-71
2021/09/07 07:22:33;;;;;;;15.75;11.27;;;19.60;99.90;;;;;;4119456;28;20046;-71
2021/09/07 07:24:34;;;;;;;15.90;11.70;;;19.60;99.90;;;;;;4118242;28;20035;-71
2021/09/07 07:26:35;;;;;;;18.77;12.10;;;19.60;99.90;;;;;;4100241;28;20043;-71
2021/09/07 07:28:35;;;;;;;15.98;11.23;;;19.70;99.90;;;;;;4118857;28;20078;-71
2021/09/07 07:30:36;;;;;;;19.55;12.32;;;19.80;99.90;;;;;;4102303;28;20038;-71
2021/09/07 07:32:36;;;;;;;19.92;12.82;;;19.80;99.90;;;;;;4117445;28;20092;-71
2021/09/07 07:34:37;;;;;;;17.98;11.48;;;19.80;99.90;;;;;;4120090;28;20133;-71
2021/09/07 07:36:37;;;;;;;18.17;12.07;;;19.80;99.90;;;;;;4117905;28;20057;-70
2021/09/07 07:38:38;;;;;;;19.30;11.82;;;19.90;99.90;;;;;;4117306;28;22936;-71
2021/09/07 07:40:39;;;;;;;20.92;11.68;;;19.90;99.90;;;;;;4119800;28;20140;-71
2021/09/07 07:42:39;;;;;;;21.02;12.27;;;19.90;99.90;;;;;;4117807;28;20089;-71
2021/09/07 07:44:40;;;;;;;18.58;11.73;;;20.00;99.90;;;;;;4099250;28;20045;-71
2021/09/07 07:46:41;;;;;;;17.25;12.27;;;20.00;99.90;;;;;;4113050;28;20050;-71
2021/09/07 07:48:41;;;;;;;19.60;12.32;;;20.00;99.90;;;;;;4113924;28;20042;-70
2021/09/07 07:50:42;;;;;;;23.33;13.65;;;20.00;99.90;;;;;;4116068;28;20133;-71
2021/09/07 07:52:43;;;;;;;19.48;11.85;;;20.10;99.90;;;;;;4082956;28;20039;-71
2021/09/07 07:54:45;;;;;;;21.90;13.45;;;20.10;99.90;;;;;;4115112;28;20046;-71
2021/09/07 07:56:46;;;;;;;18.90;13.10;;;20.10;99.90;;;;;;4116409;28;20047;-71
2021/09/07 07:58:46;;;;;;;23.08;14.02;;;20.20;99.90;;;;;;4099390;28;20054;-70
2021/09/07 08:00:48;;;;;;;20.58;12.43;;;20.20;99.90;;;;;;4099848;28;20114;-71
2021/09/07 08:02:48;;;;;;;18.73;12.60;;;20.30;99.90;;;;;;4118345;28;20133;-71
2021/09/07 08:04:49;;;;;;;20.45;12.88;;;20.40;99.90;;;;;;4118103;28;20838;-71
2021/09/07 08:06:50;;;;;;;21.25;12.43;;;20.40;99.90;;;;;;4117856;28;20070;-71
2021/09/07 08:08:50;;;;;;;20.90;12.70;;;20.50;99.90;;;;;;4099880;28;20169;-71
2021/09/07 08:10:51;;;;;;;20.40;13.40;;;20.50;99.90;;;;;;4115899;28;20042;-71
2021/09/07 08:12:51;;;;;;;20.27;12.05;;;20.60;99.90;;;;;;4119757;28;20121;-71
2021/09/07 08:14:52;;;;;;;19.90;12.73;;;20.70;99.90;;;;;;4119956;28;20034;-71
2021/09/07 08:16:53;;;;;;;19.75;12.82;;;20.80;99.90;;;;;;4116233;28;20050;-71
2021/09/07 08:18:54;;;;;;;25.52;15.80;;;20.90;99.90;;;;;;4116885;28;20042;-70
2021/09/07 08:20:56;;;;;;;27.83;14.85;;;20.90;99.90;;;;;;4102257;28;20066;-71
2021/09/07 08:22:57;;;;;;;25.77;14.98;;;21.00;99.90;;;;;;4118452;28;20035;-71
2021/09/07 08:24:58;;;;;;;22.45;13.70;;;21.00;99.90;;;;;;4121749;28;20492;-71
2021/09/07 08:26:58;;;;;;;21.10;13.50;;;21.10;99.90;;;;;;4119746;28;20034;-71
2021/09/07 08:28:59;;;;;;;20.30;13.32;;;21.10;99.90;;;;;;4102311;28;20046;-71
2021/09/07 08:31:00;;;;;;;26.88;13.52;;;21.20;99.90;;;;;;4120768;28;20054;-71
2021/09/07 08:33:02;;;;;;;23.50;13.70;;;21.30;99.90;;;;;;4104602;28;20038;-71
2021/09/07 08:35:03;;;;;;;18.25;12.55;;;21.40;99.90;;;;;;4120176;28;20042;-71
2021/09/07 08:37:04;;;;;;;21.75;12.45;;;21.40;99.90;;;;;;4104213;28;20039;-71
2021/09/07 08:39:05;;;;;;;22.13;12.25;;;21.50;99.90;;;;;;4119250;28;20049;-71
2021/09/07 08:41:05;;;;;;;24.75;12.93;;;21.60;99.90;;;;;;4120722;28;20686;-71
2021/09/07 08:43:07;;;;;;;21.67;12.80;;;21.70;99.90;;;;;;4120371;28;20041;-71
2021/09/07 08:45:13;;;;;;;23.50;13.13;;;21.70;99.90;;;;;;4111063;28;21241;-71
2021/09/07 08:47:19;;;;;;;21.40;11.85;;;21.80;99.90;;;;;;4100260;28;20065;-71
2021/09/07 08:49:20;;;;;;;19.90;12.20;;;21.90;99.90;;;;;;4119661;28;20046;-71
2021/09/07 08:51:22;;;;;;;19.23;10.80;;;22.00;99.90;;;;;;4119609;28;20046;-72
2021/09/07 08:53:23;;;;;;;;;;;22.10;99.90;;;;;;4113190;28;20692;-71
2021/09/07 08:55:24;;;;;;;23.13;12.57;;;22.20;99.90;;;;;;4104271;28;19965;-71
2021/09/07 08:57:26;;;;;;;19.75;12.38;;;22.40;99.90;;;;;;4123389;28;20133;-71
2021/09/07 08:59:28;;;;;;;21.52;13.00;;;22.50;99.90;;;;;;4119206;28;20089;-71
2021/09/07 09:01:39;;;;;;;17.97;11.97;;;22.50;99.90;;;;;;4119050;28;20049;-71
2021/09/07 09:03:42;;;;;;;17.98;11.05;;;22.60;99.90;;;;;;4119482;28;20320;-71
2021/09/07 09:05:47;;;;;;;19.58;10.90;;;22.70;99.90;;;;;;4118988;28;20038;-71
2021/09/07 09:07:47;;;;;;;19.92;11.30;;;22.70;99.90;;;;;;4122824;28;20043;-71
2021/09/07 09:09:50;;;;;;;19.00;11.60;;;22.80;99.90;;;;;;4121440;28;20794;-71
2021/09/07 09:11:54;;;;;;;24.50;13.93;;;22.80;99.90;;;;;;4120260;28;20057;-71
2021/09/07 09:13:56;;;;;;;17.42;11.15;;;22.70;99.90;;;;;;4119185;28;20049;-71
2021/09/07 09:16:05;;;;;;;19.90;11.90;;;22.80;99.90;;;;;;4120630;28;20061;-71
2021/09/07 09:18:08;;;;;;;24.55;12.25;;;22.90;99.90;;;;;;4122837;28;20031;-71
2021/09/07 09:20:17;;;;;;;19.15;10.93;;;22.90;99.90;;;;;;4124452;28;20046;-71
2021/09/07 09:22:18;;;;;;;20.45;11.63;;;23.00;99.90;;;;;;4121158;28;20050;-71
2021/09/07 09:24:21;;;;;;;19.33;10.50;;;23.10;99.90;;;;;;4121911;28;20062;-71
2021/09/07 09:26:21;;;;;;;15.52;9.48;;;23.10;99.90;;;;;;4121442;28;20367;-71
2021/09/07 09:28:22;;;;;;;14.02;9.32;;;23.10;99.90;;;;;;4122382;28;20041;-71
2021/09/07 09:30:29;;;;;;;14.88;9.57;;;23.20;99.90;;;;;;4122507;28;20081;-71
2021/09/07 09:32:29;;;;;;;18.35;9.65;;;23.20;99.90;;;;;;4122292;28;20040;-71
2021/09/07 09:34:31;;;;;;;15.07;9.10;;;23.20;99.90;;;;;;4124743;28;20038;-71
2021/09/07 09:36:32;;;;;;;15.18;9.07;;;23.30;99.90;;;;;;4120294;28;20058;-71
2021/09/07 09:38:34;;;;;;;15.07;9.27;;;23.40;99.90;;;;;;4118935;28;20152;-71
2021/09/07 09:40:35;;;;;;;15.88;9.85;;;23.40;99.90;;;;;;4121261;28;20052;-71
2021/09/07 09:42:37;;;;;;;13.20;8.05;;;23.40;99.90;;;;;;4120422;28;20038;-71
2021/09/07 09:44:38;;;;;;;10.68;7.70;;;23.40;99.90;;;;;;4125725;28;20050;-71
2021/09/07 09:46:40;;;;;;;17.55;8.90;;;23.50;99.90;;;;;;4120651;28;20591;-72
2021/09/07 09:48:41;;;;;;;12.50;7.63;;;23.50;99.90;;;;;;4122171;28;20372;-72
2021/09/07 09:50:42;;;;;;;12.82;8.38;;;23.50;99.90;;;;;;4120941;28;20054;-71
2021/09/07 09:52:44;;;;;;;15.02;8.88;;;23.60;99.90;;;;;;4122173;28;20045;-71
2021/09/07 09:54:46;;;;;;;11.52;7.95;;;23.60;99.60;;;;;;4121909;28;20601;-71
2021/09/07 09:56:47;;;;;;;11.77;8.02;;;23.80;99.90;;;;;;4120914;28;20054;-71
2021/09/07 09:58:50;;;;;;;13.02;8.98;;;23.80;99.70;;;;;;4121925;28;20035;-71
2021/09/07 10:00:51;;;;;;;11.93;7.38;;;23.80;98.00;;;;;;4121274;28;20056;-71
2021/09/07 10:02:58;;;;;;;12.27;7.95;;;23.80;99.10;;;;;;4121433;28;20065;-71
2021/09/07 10:04:59;;;;;;;13.57;8.23;;;23.80;98.10;;;;;;4122654;28;20026;-71
2021/09/07 10:07:00;;;;;;;12.00;7.90;;;23.80;98.20;;;;;;4126320;28;20810;-70
2021/09/07 10:09:01;;;;;;;16.33;8.88;;;23.90;97.90;;;;;;4119669;28;20057;-71
2021/09/07 10:11:10;;;;;;;11.88;7.55;;;23.90;97.40;;;;;;4120225;28;20462;-71
2021/09/07 10:13:16;;;;;;;11.88;7.47;;;24.00;94.50;;;;;;4120484;28;20378;-71
2021/09/07 10:15:34;;;;;;;10.43;6.85;;;24.00;95.30;;;;;;4122384;28;20069;-71
2021/09/07 10:19:48;;;;;;;10.23;7.10;;;24.10;96.80;;;;;;4123695;28;20042;-71
2021/09/07 10:23:59;;;;;;;11.35;7.25;;;24.20;96.50;;;;;;4120742;28;20038;-71